createdAt,value
2023-04-29T00:00:36.656Z,7.72
2023-04-29T00:03:06.886Z,7.20
2023-04-29T00:05:37.152Z,7.38
2023-04-29T00:08:07.656Z,7.57
2023-04-29T00:10:40.220Z,7.40
2023-04-29T00:13:10.330Z,6.78
2023-04-29T00:15:40.404Z,7.03
2023-04-29T00:18:10.528Z,7.70
2023-04-29T00:20:40.820Z,7.35
2023-04-29T00:23:11.115Z,7.65
2023-04-29T00:25:43.657Z,7.55
2023-04-29T00:28:13.791Z,7.63
2023-04-29T00:30:43.833Z,7.07
2023-04-29T00:33:13.818Z,7.80
2023-04-29T00:35:43.765Z,7.50
2023-04-29T00:38:13.724Z,7.65
2023-04-29T00:40:46.588Z,7.70
2023-04-29T00:43:17.110Z,7.82
2023-04-29T00:45:47.213Z,8.13
2023-04-29T00:48:17.423Z,7.70
2023-04-29T00:50:47.816Z,7.30
2023-04-29T00:53:17.841Z,7.72
2023-04-29T00:55:51.823Z,7.95
2023-04-29T00:58:22.948Z,8.38
2023-04-29T01:00:54.692Z,8.30
2023-04-29T01:03:26.276Z,7.63
2023-04-29T01:06:14.274Z,7.38
2023-04-29T01:08:55.924Z,8.10
2023-04-29T01:11:38.350Z,7.93
2023-04-29T01:14:08.614Z,8.23
2023-04-29T01:16:45.768Z,8.25
2023-04-29T01:19:43.036Z,7.88
2023-04-29T01:22:12.988Z,7.90
2023-04-29T01:24:45.521Z,8.43
2023-04-29T01:27:28.690Z,7.80
2023-04-29T01:30:07.103Z,7.97
2023-04-29T01:32:52.620Z,7.68
2023-04-29T01:35:43.178Z,7.03
2023-04-29T01:38:26.676Z,7.65
2023-04-29T01:41:13.640Z,8.02
2023-04-29T01:43:45.103Z,8.13
2023-04-29T01:46:20.081Z,7.82
2023-04-29T01:48:50.396Z,8.02
2023-04-29T01:51:20.483Z,7.90
2023-04-29T01:53:50.488Z,8.10
2023-04-29T01:56:23.055Z,8.23
2023-04-29T01:58:53.000Z,8.68
2023-04-29T02:01:23.001Z,8.52
2023-04-29T02:03:53.233Z,8.38
2023-04-29T02:06:23.966Z,8.40
2023-04-29T02:08:54.003Z,8.40
2023-04-29T02:11:26.883Z,8.05
2023-04-29T02:13:57.523Z,9.05
2023-04-29T02:16:27.662Z,8.77
2023-04-29T02:18:57.682Z,8.70
2023-04-29T02:21:27.746Z,9.25
2023-04-29T02:23:57.937Z,9.38
2023-04-29T02:26:30.490Z,8.90
2023-04-29T02:29:00.443Z,9.55
2023-04-29T02:31:30.831Z,8.82
2023-04-29T02:34:00.856Z,8.40
2023-04-29T02:36:31.641Z,9.35
2023-04-29T02:39:01.790Z,9.57
2023-04-29T02:41:34.347Z,9.65
2023-04-29T02:44:04.277Z,9.60
2023-04-29T02:46:36.224Z,9.77
2023-04-29T02:49:06.607Z,9.65
2023-04-29T02:51:36.960Z,9.68
2023-04-29T02:54:07.046Z,9.75
2023-04-29T02:56:39.632Z,9.57
2023-04-29T02:59:09.849Z,10.20
2023-04-29T03:01:40.109Z,10.13
2023-04-29T03:04:10.519Z,10.48
2023-04-29T03:06:40.731Z,10.25
2023-04-29T03:09:10.783Z,10.18
2023-04-29T03:11:43.341Z,10.30
2023-04-29T03:14:13.287Z,10.85
2023-04-29T03:16:43.337Z,9.88
2023-04-29T03:19:13.302Z,10.48
2023-04-29T03:21:43.403Z,11.25
2023-04-29T03:24:13.455Z,11.20
2023-04-29T03:26:45.990Z,9.98
2023-04-29T03:29:15.936Z,10.85
2023-04-29T03:31:46.310Z,9.70
2023-04-29T03:34:17.093Z,11.18
2023-04-29T03:36:47.042Z,11.30
2023-04-29T03:39:17.009Z,10.45
2023-04-29T03:41:50.615Z,11.60
2023-04-29T03:44:20.581Z,11.30
2023-04-29T03:46:50.523Z,11.45
2023-04-29T03:49:20.544Z,11.55
2023-04-29T03:51:50.562Z,11.75
2023-04-29T03:54:20.608Z,12.45
2023-04-29T03:56:53.157Z,11.65
2023-04-29T03:59:23.356Z,12.23
2023-04-29T04:01:54.523Z,12.77
2023-04-29T04:04:24.766Z,12.38
2023-04-29T04:06:54.800Z,12.43
2023-04-29T04:09:24.763Z,12.95
2023-04-29T04:11:57.323Z,13.95
2023-04-29T04:14:27.789Z,13.73
2023-04-29T04:16:57.796Z,12.95
2023-04-29T04:19:29.299Z,14.35
2023-04-29T04:21:59.290Z,14.27
2023-04-29T04:24:29.225Z,13.88
2023-04-29T04:27:02.036Z,13.90
2023-04-29T04:29:32.006Z,14.85
2023-04-29T04:32:02.071Z,14.82
2023-04-29T04:34:32.521Z,14.70
2023-04-29T04:37:02.731Z,14.80
2023-04-29T04:39:32.686Z,14.82
2023-04-29T04:42:06.043Z,15.95
2023-04-29T04:44:36.131Z,15.02
2023-04-29T04:47:06.470Z,15.73
2023-04-29T04:49:36.412Z,16.35
2023-04-29T04:52:07.001Z,16.48
2023-04-29T04:54:38.516Z,15.93
2023-04-29T04:57:11.062Z,16.23
2023-04-29T04:59:41.025Z,15.60
2023-04-29T05:02:11.057Z,16.75
2023-04-29T05:04:41.033Z,17.02
2023-04-29T05:07:11.094Z,17.50
2023-04-29T05:09:41.048Z,18.13
2023-04-29T05:12:13.596Z,18.40
2023-04-29T05:14:43.600Z,18.80
2023-04-29T05:17:13.616Z,18.50
2023-04-29T05:19:43.878Z,17.88
2023-04-29T05:22:13.845Z,18.90
2023-04-29T05:24:43.805Z,18.65
2023-04-29T05:27:16.329Z,19.98
2023-04-29T05:29:46.498Z,20.35
2023-04-29T05:32:16.528Z,20.13
2023-04-29T05:34:46.666Z,19.75
2023-04-29T05:37:16.622Z,21.35
2023-04-29T05:39:46.588Z,19.83
2023-04-29T05:42:19.118Z,20.13
2023-04-29T05:44:49.071Z,20.13
2023-04-29T05:47:19.184Z,20.50
2023-04-29T05:49:49.285Z,21.45
2023-04-29T05:52:19.232Z,21.98
2023-04-29T05:54:49.171Z,21.83
2023-04-29T05:57:21.850Z,22.60
2023-04-29T05:59:51.920Z,21.83
2023-04-29T06:02:22.109Z,22.13
2023-04-29T06:04:52.321Z,23.30
2023-04-29T06:07:22.994Z,22.63
2023-04-29T06:09:53.391Z,23.10
2023-04-29T06:12:26.238Z,23.77
2023-04-29T06:14:56.358Z,22.02
2023-04-29T06:17:29.355Z,22.27
2023-04-29T06:19:59.471Z,22.08
2023-04-29T06:22:29.455Z,22.40
2023-04-29T06:24:59.404Z,22.38
2023-04-29T06:27:31.985Z,22.38
2023-04-29T06:30:01.950Z,21.85
2023-04-29T06:32:31.911Z,22.27
2023-04-29T06:35:01.887Z,27.85
2023-04-29T06:37:31.841Z,35.97
2023-04-29T06:40:01.819Z,22.55
2023-04-29T06:42:34.373Z,21.98
2023-04-29T06:45:04.993Z,21.33
2023-04-29T06:47:34.989Z,23.05
2023-04-29T06:50:05.308Z,37.20
2023-04-29T06:52:35.300Z,36.13
2023-04-29T06:55:05.680Z,24.73
2023-04-29T06:57:39.171Z,22.63
2023-04-29T07:00:11.718Z,22.33
2023-04-29T07:02:41.772Z,23.55
2023-04-29T07:05:13.104Z,27.58
2023-04-29T07:07:43.082Z,21.75
2023-04-29T07:10:13.685Z,25.13
2023-04-29T07:12:46.211Z,24.05
2023-04-29T07:15:16.236Z,25.00
2023-04-29T07:17:46.232Z,28.27
2023-04-29T07:20:17.533Z,33.00
2023-04-29T07:22:47.514Z,37.88
2023-04-29T07:25:17.735Z,24.58
2023-04-29T07:27:50.681Z,24.02
2023-04-29T07:30:20.732Z,22.00
2023-04-29T07:32:50.773Z,25.25
2023-04-29T07:35:21.452Z,27.52
2023-04-29T07:37:51.420Z,21.67
2023-04-29T07:40:21.464Z,25.35
2023-04-29T07:42:54.072Z,23.25
2023-04-29T07:45:24.021Z,20.27
2023-04-29T07:47:54.076Z,16.17
2023-04-29T07:50:24.074Z,16.98
2023-04-29T07:52:55.348Z,24.75
2023-04-29T07:55:27.216Z,19.02
2023-04-29T07:58:00.615Z,36.30
2023-04-29T08:00:31.601Z,18.90
2023-04-29T08:03:01.720Z,14.98
2023-04-29T08:05:32.464Z,18.85
2023-04-29T08:08:02.649Z,15.40
2023-04-29T08:10:32.712Z,13.60
2023-04-29T08:13:05.248Z,13.90
2023-04-29T08:15:35.209Z,13.25
2023-04-29T08:18:05.264Z,13.90
2023-04-29T08:20:35.349Z,14.00
2023-04-29T08:23:05.531Z,14.32
2023-04-29T08:25:35.565Z,13.80
2023-04-29T08:28:08.520Z,13.25
2023-04-29T08:30:42.736Z,13.15
2023-04-29T08:33:13.189Z,13.32
2023-04-29T08:35:43.360Z,12.18
2023-04-29T08:38:13.646Z,12.23
2023-04-29T08:40:47.167Z,11.95
2023-04-29T08:43:20.592Z,10.57
2023-04-29T08:45:52.636Z,9.40
2023-04-29T08:48:23.031Z,9.30
2023-04-29T08:50:53.318Z,9.27
2023-04-29T08:53:24.084Z,9.25
2023-04-29T08:55:54.289Z,9.95
2023-04-29T08:58:29.044Z,8.90
2023-04-29T09:01:00.218Z,9.65
2023-04-29T09:03:37.366Z,9.63
2023-04-29T09:06:09.293Z,11.60
2023-04-29T09:08:39.880Z,11.00
2023-04-29T09:11:12.741Z,11.02
2023-04-29T09:13:45.394Z,12.13
2023-04-29T09:16:15.926Z,12.90
2023-04-29T09:18:48.822Z,13.52
2023-04-29T09:21:22.834Z,15.10
2023-04-29T09:23:55.124Z,15.38
2023-04-29T09:26:25.795Z,15.27
2023-04-29T09:29:16.481Z,15.88
2023-04-29T09:31:47.269Z,16.85
2023-04-29T09:34:17.839Z,16.33
2023-04-29T09:36:50.100Z,17.17
2023-04-29T09:39:22.447Z,14.77
2023-04-29T09:42:03.865Z,14.90
2023-04-29T09:44:38.686Z,14.68
2023-04-29T09:47:10.724Z,15.27
2023-04-29T09:49:44.913Z,15.02
2023-04-29T09:52:20.823Z,16.48
2023-04-29T09:54:51.323Z,19.15
2023-04-29T09:57:25.682Z,20.02
2023-04-29T09:59:58.433Z,21.17
2023-04-29T10:02:30.633Z,21.58
2023-04-29T10:05:02.143Z,22.45
2023-04-29T10:07:32.799Z,24.30
2023-04-29T10:10:03.041Z,27.92
2023-04-29T10:12:34.317Z,27.70
2023-04-29T10:15:15.379Z,27.92
2023-04-29T10:17:49.866Z,28.95
2023-04-29T10:20:28.128Z,29.58
2023-04-29T10:23:00.104Z,30.42
2023-04-29T10:25:30.886Z,31.55
2023-04-29T10:28:04.443Z,31.67
2023-04-29T10:30:38.765Z,35.42
2023-04-29T10:33:11.076Z,34.97
2023-04-29T10:35:41.381Z,36.85
2023-04-29T10:38:20.228Z,35.60
2023-04-29T10:40:51.632Z,37.28
2023-04-29T10:43:27.000Z,36.17
2023-04-29T10:46:26.617Z,35.28
2023-04-29T10:49:03.834Z,36.45
2023-04-29T10:51:35.904Z,35.72
2023-04-29T10:54:11.074Z,35.33
2023-04-29T10:56:47.825Z,35.25
2023-04-29T10:59:19.817Z,38.55
2023-04-29T11:01:54.150Z,37.53
2023-04-29T11:04:26.000Z,37.10
2023-04-29T11:06:59.217Z,38.33
2023-04-29T11:09:31.565Z,39.08
2023-04-29T11:12:06.868Z,38.33
2023-04-29T11:14:41.427Z,38.67
2023-04-29T11:19:49.810Z,36.80
2023-04-29T11:22:30.943Z,36.78
2023-04-29T11:25:03.272Z,35.72
2023-04-29T11:27:35.745Z,37.28
2023-04-29T11:30:09.432Z,36.28
2023-04-29T11:32:44.850Z,34.00
2023-04-29T11:35:17.421Z,32.83
2023-04-29T11:37:49.732Z,33.67
2023-04-29T11:40:19.671Z,32.88
2023-04-29T11:42:51.351Z,33.42
2023-04-29T11:45:22.717Z,32.05
2023-04-29T11:47:56.101Z,30.52
2023-04-29T11:50:26.306Z,30.63
2023-04-29T11:52:56.463Z,27.58
2023-04-29T11:55:26.792Z,27.65
2023-04-29T11:57:56.799Z,28.83
2023-04-29T12:00:28.157Z,27.15
2023-04-29T12:03:02.133Z,26.52
2023-04-29T12:05:32.708Z,27.95
2023-04-29T12:08:02.783Z,27.10
2023-04-29T12:10:33.727Z,26.55
2023-04-29T12:13:03.756Z,25.33
2023-04-29T12:15:34.550Z,25.60
2023-04-29T12:18:07.326Z,22.67
2023-04-29T12:20:39.393Z,23.70
2023-04-29T12:23:16.305Z,22.95
2023-04-29T12:25:53.245Z,22.15
2023-04-29T12:28:24.183Z,20.85
2023-04-29T12:30:56.848Z,21.65
2023-04-29T12:33:32.402Z,20.13
2023-04-29T12:36:02.630Z,17.67
2023-04-29T12:38:35.036Z,17.05
2023-04-29T12:41:07.655Z,17.30
2023-04-29T12:43:37.659Z,15.00
2023-04-29T12:46:09.423Z,16.42
2023-04-29T12:48:44.092Z,14.65
2023-04-29T12:53:44.061Z,16.65
2023-04-29T12:56:15.300Z,15.88
2023-04-29T12:58:45.244Z,15.73
2023-04-29T13:01:18.394Z,16.55
2023-04-29T13:03:51.840Z,15.23
2023-04-29T13:06:21.969Z,14.85
2023-04-29T13:08:52.374Z,15.85
2023-04-29T13:11:22.366Z,15.82
2023-04-29T13:13:52.874Z,15.73
2023-04-29T13:16:25.237Z,14.73
2023-04-29T13:19:05.228Z,15.68
2023-04-29T13:21:38.492Z,13.40
2023-04-29T13:24:10.658Z,13.77
2023-04-29T13:26:41.630Z,12.75
2023-04-29T13:29:11.636Z,13.15
2023-04-29T13:31:44.168Z,13.70
2023-04-29T13:34:17.020Z,10.38
2023-04-29T13:36:47.324Z,12.35
2023-04-29T13:39:20.027Z,12.57
2023-04-29T13:41:51.155Z,12.88
2023-04-29T13:44:29.635Z,11.65
2023-04-29T13:47:06.512Z,12.40
2023-04-29T13:53:07.316Z,10.73
2023-04-29T14:00:31.537Z,9.20
2023-04-29T14:03:03.600Z,10.90
2023-04-29T14:05:37.087Z,9.18
2023-04-29T14:08:07.782Z,10.20
2023-04-29T14:10:38.047Z,6.65
2023-04-29T14:13:08.162Z,7.65
2023-04-29T14:15:38.386Z,8.15
2023-04-29T14:18:09.759Z,8.90
2023-04-29T14:20:42.434Z,6.03
2023-04-29T14:23:12.549Z,7.55
2023-04-29T14:25:42.806Z,8.40
2023-04-29T14:28:12.933Z,8.30
2023-04-29T14:30:46.200Z,8.07
2023-04-29T14:33:17.112Z,9.18
2023-04-29T14:35:49.800Z,6.65
2023-04-29T14:38:19.960Z,8.15
2023-04-29T14:40:50.305Z,8.23
2023-04-29T14:43:20.376Z,7.63
2023-04-29T14:45:50.627Z,7.82
2023-04-29T14:48:20.733Z,4.63
2023-04-29T14:50:53.449Z,8.85
2023-04-29T14:53:24.166Z,8.15
2023-04-29T14:55:54.268Z,8.02
2023-04-29T14:58:24.388Z,9.93
2023-04-29T15:00:55.148Z,9.32
2023-04-29T15:03:25.649Z,6.88
2023-04-29T15:05:58.981Z,7.90
2023-04-29T15:08:29.136Z,7.45
2023-04-29T15:10:59.221Z,8.15
2023-04-29T15:13:31.422Z,7.90
2023-04-29T15:16:02.139Z,8.07
2023-04-29T15:18:32.307Z,8.05
2023-04-29T15:21:04.976Z,7.00
2023-04-29T15:23:35.254Z,6.40
2023-04-29T15:26:05.423Z,6.38
2023-04-29T15:28:35.819Z,6.47
2023-04-29T15:31:06.485Z,7.15
2023-04-29T15:33:36.805Z,6.93
2023-04-29T15:36:10.223Z,6.38
2023-04-29T15:38:40.177Z,6.90
2023-04-29T15:41:10.140Z,7.63
2023-04-29T15:43:40.475Z,7.40
2023-04-29T15:46:10.499Z,7.35
2023-04-29T15:48:40.493Z,7.05
2023-04-29T15:51:15.232Z,7.07
2023-04-29T15:53:45.348Z,6.60
2023-04-29T15:56:15.317Z,6.63
2023-04-29T15:58:45.260Z,5.25
2023-04-29T16:01:15.312Z,5.70
2023-04-29T16:03:45.371Z,5.60
2023-04-29T16:06:19.455Z,5.80
2023-04-29T16:08:50.316Z,6.38
2023-04-29T16:11:20.268Z,6.03
2023-04-29T16:13:50.209Z,6.82
2023-04-29T16:16:20.205Z,7.07
2023-04-29T16:18:50.164Z,5.93
2023-04-29T16:21:22.904Z,5.90
2023-04-29T16:23:53.076Z,5.68
2023-04-29T16:26:23.109Z,5.68
2023-04-29T16:28:53.229Z,5.35
2023-04-29T16:31:23.788Z,6.55
2023-04-29T16:33:57.196Z,6.22
2023-04-29T16:36:30.285Z,6.63
2023-04-29T16:39:00.222Z,6.15
2023-04-29T16:41:30.193Z,6.97
2023-04-29T16:44:00.547Z,6.78
2023-04-29T16:46:30.763Z,8.77
2023-04-29T16:49:00.924Z,8.75
2023-04-29T16:51:33.657Z,7.57
2023-04-29T16:54:03.757Z,7.57
2023-04-29T16:56:33.685Z,7.40
2023-04-29T16:59:03.816Z,7.38
2023-04-29T17:01:33.850Z,7.63
2023-04-29T17:04:04.264Z,7.20
2023-04-29T17:06:37.170Z,6.30
2023-04-29T17:09:07.676Z,7.15
2023-04-29T17:11:37.686Z,7.43
2023-04-29T17:14:07.735Z,7.93
2023-04-29T17:16:37.924Z,8.07
2023-04-29T17:19:08.366Z,7.30
2023-04-29T17:21:40.906Z,6.63
2023-04-29T17:24:10.867Z,6.60
2023-04-29T17:26:40.973Z,9.00
2023-04-29T17:29:12.279Z,9.10
2023-04-29T17:31:54.547Z,9.32
2023-04-29T17:34:28.930Z,8.90
2023-04-29T17:37:01.755Z,8.27
2023-04-29T17:39:31.938Z,9.15
2023-04-29T17:42:02.258Z,8.23
2023-04-29T17:44:32.210Z,8.77
2023-04-29T17:47:02.197Z,8.85
2023-04-29T17:49:32.185Z,7.63
2023-04-29T17:52:04.961Z,6.82
2023-04-29T17:54:34.932Z,5.93
2023-04-29T17:57:04.887Z,5.20
2023-04-29T17:59:34.902Z,4.70
2023-04-29T18:02:04.924Z,4.88
2023-04-29T18:04:34.896Z,4.80
2023-04-29T18:07:07.410Z,4.80
2023-04-29T18:09:37.641Z,5.18
2023-04-29T18:12:08.205Z,3.85
2023-04-29T18:14:39.336Z,4.38
2023-04-29T18:17:09.327Z,3.95
2023-04-29T18:19:39.281Z,4.07
2023-04-29T18:22:11.851Z,3.78
2023-04-29T18:24:41.830Z,3.90
2023-04-29T18:27:11.845Z,3.88
2023-04-29T18:29:41.811Z,4.15
2023-04-29T18:32:12.125Z,4.28
2023-04-29T18:34:42.496Z,4.60
2023-04-29T18:37:15.063Z,4.80
2023-04-29T18:39:45.039Z,4.18
2023-04-29T18:42:15.126Z,4.03
2023-04-29T18:44:45.863Z,4.60
2023-04-29T18:47:15.854Z,4.43
2023-04-29T18:49:46.019Z,4.65
2023-04-29T18:52:19.000Z,4.63
2023-04-29T18:54:49.156Z,4.40
2023-04-29T18:57:19.174Z,4.60
2023-04-29T18:59:49.454Z,4.32
2023-04-29T19:02:19.399Z,5.03
2023-04-29T19:04:49.409Z,5.00
2023-04-29T19:07:21.989Z,4.90
2023-04-29T19:09:52.277Z,4.25
2023-04-29T19:12:22.741Z,4.90
2023-04-29T19:14:52.756Z,4.53
2023-04-29T19:17:22.834Z,4.03
2023-04-29T19:19:53.165Z,4.60
2023-04-29T19:22:25.967Z,4.82
2023-04-29T19:24:56.091Z,4.80
2023-04-29T19:27:26.080Z,4.95
2023-04-29T19:29:56.220Z,4.90
2023-04-29T19:32:28.223Z,4.78
2023-04-29T19:35:00.093Z,4.90
2023-04-29T19:37:32.739Z,5.50
2023-04-29T19:40:02.784Z,5.05
2023-04-29T19:42:33.004Z,4.90
2023-04-29T19:45:03.216Z,5.35
2023-04-29T19:47:33.239Z,5.25
2023-04-29T19:50:03.196Z,5.57
2023-04-29T19:52:35.764Z,6.43
2023-04-29T19:55:06.116Z,5.90
2023-04-29T19:57:36.110Z,6.43
2023-04-29T20:00:07.248Z,6.50
2023-04-29T20:02:37.484Z,6.82
2023-04-29T20:05:08.881Z,8.48
2023-04-29T20:07:41.656Z,7.53
2023-04-29T20:10:12.846Z,8.05
2023-04-29T20:12:43.068Z,7.80
2023-04-29T20:15:14.306Z,7.90
2023-04-29T20:17:44.403Z,7.68
2023-04-29T20:20:14.869Z,8.77
2023-04-29T20:22:47.498Z,8.43
2023-04-29T20:25:17.689Z,8.07
2023-04-29T20:27:47.745Z,8.55
2023-04-29T20:30:17.726Z,8.88
2023-04-29T20:32:48.464Z,9.05
2023-04-29T20:35:18.700Z,8.60
2023-04-29T20:37:51.564Z,8.90
2023-04-29T20:40:22.056Z,8.50
2023-04-29T20:42:52.039Z,9.50
2023-04-29T20:45:22.352Z,9.63
2023-04-29T20:47:53.016Z,8.68
2023-04-29T20:50:23.772Z,8.52
2023-04-29T20:52:56.364Z,8.10
2023-04-29T20:55:26.701Z,9.13
2023-04-29T20:57:56.869Z,9.00
2023-04-29T21:00:26.861Z,8.57
2023-04-29T21:02:56.867Z,8.27
2023-04-29T21:05:26.963Z,9.10
2023-04-29T21:07:59.516Z,9.05
2023-04-29T21:10:29.463Z,9.32
2023-04-29T21:12:59.436Z,9.10
2023-04-29T21:15:29.797Z,9.20
2023-04-29T21:17:59.917Z,9.73
2023-04-29T21:20:30.467Z,10.25
2023-04-29T21:23:03.079Z,9.50
2023-04-29T21:25:33.157Z,9.77
2023-04-29T21:28:04.055Z,10.23
2023-04-29T21:30:34.040Z,10.32
2023-04-29T21:33:04.171Z,9.73
2023-04-29T21:35:34.200Z,10.95
2023-04-29T21:38:06.713Z,10.85
2023-04-29T21:40:36.680Z,10.50
2023-04-29T21:43:06.720Z,10.63
2023-04-29T21:45:36.959Z,10.05
2023-04-29T21:48:17.072Z,11.25
2023-04-29T21:50:48.002Z,9.50
2023-04-29T21:53:20.538Z,9.70
2023-04-29T21:55:50.531Z,8.05
2023-04-29T21:58:21.109Z,8.00
2023-04-29T22:00:58.562Z,8.25
2023-04-29T22:03:28.727Z,7.38
2023-04-29T22:05:59.196Z,6.90
2023-04-29T22:08:31.794Z,6.80
2023-04-29T22:11:01.726Z,7.55
2023-04-29T22:13:31.702Z,7.93
2023-04-29T22:16:01.669Z,7.63
2023-04-29T22:18:31.710Z,7.78
2023-04-29T22:21:01.721Z,7.32
2023-04-29T22:23:34.324Z,6.28
2023-04-29T22:26:04.383Z,6.05
2023-04-29T22:28:34.353Z,6.00
2023-04-29T22:31:04.337Z,6.43
2023-04-29T22:33:35.165Z,6.43
2023-04-29T22:36:05.463Z,6.80
2023-04-29T22:38:38.052Z,6.18
2023-04-29T22:41:09.751Z,6.78
2023-04-29T22:43:39.741Z,5.32
2023-04-29T22:46:09.983Z,5.18
2023-04-29T22:48:40.021Z,5.03
2023-04-29T22:51:09.997Z,4.95
2023-04-29T22:53:42.542Z,5.10
2023-04-29T22:56:12.617Z,4.90
2023-04-29T22:58:42.555Z,4.57
2023-04-29T23:01:12.579Z,4.65
2023-04-29T23:03:42.587Z,5.32
2023-04-29T23:06:12.611Z,4.85
2023-04-29T23:08:45.178Z,4.93
2023-04-29T23:11:15.154Z,5.05
2023-04-29T23:13:45.211Z,5.40
2023-04-29T23:16:15.481Z,5.10
2023-04-29T23:18:45.465Z,4.70
2023-04-29T23:21:15.443Z,5.20
2023-04-29T23:23:47.998Z,4.80
2023-04-29T23:26:17.958Z,4.70
2023-04-29T23:28:47.951Z,4.88
2023-04-29T23:31:18.008Z,5.47
2023-04-29T23:33:48.875Z,5.05
2023-04-29T23:36:18.808Z,5.03
2023-04-29T23:38:51.334Z,6.10
2023-04-29T23:41:21.428Z,6.15
2023-04-29T23:43:51.395Z,6.43
2023-04-29T23:46:21.446Z,5.15
2023-04-29T23:48:51.405Z,5.88
2023-04-29T23:51:21.349Z,4.78
2023-04-29T23:53:53.888Z,4.15
2023-04-29T23:56:24.998Z,4.07
2023-04-29T23:58:54.928Z,3.78
